createdAt,value
2023-08-31T00:10:38.546Z,387
2023-08-31T00:30:38.060Z,394
2023-08-31T00:50:38.526Z,390
2023-08-31T01:10:38.494Z,395
2023-08-31T01:30:38.457Z,392
2023-08-31T02:10:45.428Z,390
2023-08-31T02:50:44.863Z,385
2023-08-31T03:10:38.336Z,381
2023-08-31T03:30:45.335Z,390
2023-08-31T03:50:38.308Z,386
2023-08-31T04:10:38.253Z,391
2023-08-31T04:30:52.281Z,376
2023-08-31T04:50:38.306Z,387
2023-08-31T05:10:45.185Z,381
2023-08-31T05:50:38.138Z,381
2023-08-31T06:10:38.113Z,379
2023-08-31T06:30:38.081Z,374
2023-08-31T06:50:37.892Z,361
2023-08-31T07:10:37.585Z,371
2023-08-31T07:30:37.995Z,381
2023-08-31T07:50:45.001Z,381
2023-08-31T08:30:37.988Z,380
2023-08-31T08:50:44.909Z,375
2023-08-31T09:10:37.664Z,362
2023-08-31T09:30:37.831Z,359
2023-08-31T09:50:37.787Z,345
2023-08-31T10:10:51.579Z,331
2023-08-31T10:30:51.834Z,333
2023-08-31T10:50:37.611Z,345
2023-08-31T11:10:37.694Z,360
2023-08-31T11:30:44.670Z,358
2023-08-31T11:50:37.645Z,358
2023-08-31T12:10:37.614Z,365
2023-08-31T12:30:37.606Z,361
2023-08-31T12:50:37.551Z,362
2023-08-31T13:10:44.019Z,348
2023-08-31T13:30:37.328Z,373
2023-08-31T13:50:37.481Z,356
2023-08-31T14:30:37.426Z,363
2023-08-31T15:50:37.295Z,372
2023-08-31T16:10:37.268Z,368
2023-08-31T16:30:44.293Z,366
2023-08-31T16:50:37.185Z,365
2023-08-31T17:10:37.183Z,365
2023-08-31T17:30:37.144Z,362
2023-08-31T17:50:37.104Z,368
2023-08-31T18:10:37.062Z,361
2023-08-31T18:30:37.043Z,358
2023-08-31T18:50:37.032Z,351
2023-08-31T19:10:36.831Z,361
2023-08-31T19:30:36.476Z,350
2023-08-31T20:10:36.923Z,353
2023-08-31T20:30:36.899Z,348
2023-08-31T20:50:37.016Z,352
2023-08-31T21:10:36.866Z,356
2023-08-31T21:30:36.843Z,348
2023-08-31T21:50:36.798Z,337
2023-08-31T22:10:36.741Z,349
2023-08-31T22:30:36.739Z,347
2023-08-31T22:50:36.506Z,351
2023-08-31T23:10:36.474Z,352
2023-08-31T23:30:36.655Z,352
2023-08-31T23:50:36.436Z,330
